sensor_id;sensor_type;location;lat;lon;timestamp;pressure;altitude;pressure_sealevel;temperature;humidity
36354;BME280;22383;51.114;13.666;2023-04-26T00:01:36;67578.34;;;3.47;100.00
36354;BME280;22383;51.114;13.666;2023-04-26T00:04:03;67577.78;;;3.46;100.00
36354;BME280;22383;51.114;13.666;2023-04-26T00:06:31;67526.00;;;3.39;100.00
36354;BME280;22383;51.114;13.666;2023-04-26T00:08:58;67568.56;;;3.35;100.00
36354;BME280;22383;51.114;13.666;2023-04-26T00:11:25;67560.09;;;3.28;100.00
36354;BME280;22383;51.114;13.666;2023-04-26T00:13:52;67561.81;;;3.29;100.00
36354;BME280;22383;51.114;13.666;2023-04-26T00:16:19;67508.56;;;3.24;100.00
36354;BME280;22383;51.114;13.666;2023-04-26T00:18:46;67556.94;;;3.27;100.00
36354;BME280;22383;51.114;13.666;2023-04-26T00:21:15;67552.44;;;3.23;100.00
36354;BME280;22383;51.114;13.666;2023-04-26T00:23:42;67547.72;;;3.16;100.00
36354;BME280;22383;51.114;13.666;2023-04-26T00:26:10;67496.16;;;3.12;100.00
36354;BME280;22383;51.114;13.666;2023-04-26T00:28:37;67535.72;;;3.10;100.00
36354;BME280;22383;51.114;13.666;2023-04-26T00:31:05;67489.41;;;3.06;100.00
36354;BME280;22383;51.114;13.666;2023-04-26T00:33:33;67526.16;;;3.01;100.00
36354;BME280;22383;51.114;13.666;2023-04-26T00:36:00;67520.31;;;2.94;100.00
36354;BME280;22383;51.114;13.666;2023-04-26T00:38:27;67518.97;;;2.90;100.00
36354;BME280;22383;51.114;13.666;2023-04-26T00:40:54;67511.88;;;2.86;100.00
36354;BME280;22383;51.114;13.666;2023-04-26T00:43:21;67502.84;;;2.78;100.00
36354;BME280;22383;51.114;13.666;2023-04-26T00:45:49;67444.00;;;2.67;100.00
36354;BME280;22383;51.114;13.666;2023-04-26T00:48:18;67474.47;;;2.50;100.00
36354;BME280;22383;51.114;13.666;2023-04-26T00:50:47;67419.78;;;2.45;100.00
36354;BME280;22383;51.114;13.666;2023-04-26T00:53:15;67463.22;;;2.39;100.00
36354;BME280;22383;51.114;13.666;2023-04-26T00:55:43;67452.72;;;2.32;100.00
36354;BME280;22383;51.114;13.666;2023-04-26T00:58:11;67452.50;;;2.30;100.00
36354;BME280;22383;51.114;13.666;2023-04-26T01:00:38;67443.72;;;2.24;100.00
36354;BME280;22383;51.114;13.666;2023-04-26T01:03:05;67435.06;;;2.14;100.00
36354;BME280;22383;51.114;13.666;2023-04-26T01:05:34;67434.50;;;2.13;100.00
36354;BME280;22383;51.114;13.666;2023-04-26T01:08:03;67422.88;;;2.05;100.00
36354;BME280;22383;51.114;13.666;2023-04-26T01:10:31;67414.44;;;1.97;100.00
36354;BME280;22383;51.114;13.666;2023-04-26T01:13:00;67366.34;;;1.96;100.00
36354;BME280;22383;51.114;13.666;2023-04-26T01:15:29;67368.03;;;1.98;100.00
36354;BME280;22383;51.114;13.666;2023-04-26T01:17:56;67416.13;;;1.99;100.00
36354;BME280;22383;51.114;13.666;2023-04-26T01:20:24;67419.28;;;1.99;100.00
36354;BME280;22383;51.114;13.666;2023-04-26T01:22:51;67425.47;;;2.05;100.00
36354;BME280;22383;51.114;13.666;2023-04-26T01:25:19;67426.25;;;2.08;100.00
36354;BME280;22383;51.114;13.666;2023-04-26T01:27:47;67388.06;;;2.14;100.00
36354;BME280;22383;51.114;13.666;2023-04-26T01:30:14;67437.53;;;2.18;100.00
36354;BME280;22383;51.114;13.666;2023-04-26T01:32:41;67392.78;;;2.20;100.00
36354;BME280;22383;51.114;13.666;2023-04-26T01:35:08;67437.31;;;2.16;100.00
36354;BME280;22383;51.114;13.666;2023-04-26T01:37:35;67437.31;;;2.16;100.00
36354;BME280;22383;51.114;13.666;2023-04-26T01:40:03;67387.16;;;2.15;100.00
36354;BME280;22383;51.114;13.666;2023-04-26T01:42:32;67417.66;;;2.05;100.00
36354;BME280;22383;51.114;13.666;2023-04-26T01:45:00;67422.13;;;2.02;100.00
36354;BME280;22383;51.114;13.666;2023-04-26T01:47:47;67408.81;;;1.92;100.00
36354;BME280;22383;51.114;13.666;2023-04-26T01:50:14;67407.88;;;1.94;100.00
36354;BME280;22383;51.114;13.666;2023-04-26T01:52:41;67417.47;;;2.02;100.00
36354;BME280;22383;51.114;13.666;2023-04-26T01:55:08;67431.13;;;2.10;100.00
36354;BME280;22383;51.114;13.666;2023-04-26T01:57:35;67427.03;;;2.11;100.00
36354;BME280;22383;51.114;13.666;2023-04-26T02:00:03;67384.13;;;2.10;100.00
36354;BME280;22383;51.114;13.666;2023-04-26T02:02:39;67432.25;;;2.11;100.00
36354;BME280;22383;51.114;13.666;2023-04-26T02:05:09;67431.31;;;2.13;100.00
36354;BME280;22383;51.114;13.666;2023-04-26T02:07:36;67427.38;;;2.09;100.00
36354;BME280;22383;51.114;13.666;2023-04-26T02:10:07;67419.50;;;2.02;100.00
36354;BME280;22383;51.114;13.666;2023-04-26T02:12:35;67420.84;;;2.05;100.00
36354;BME280;22383;51.114;13.666;2023-04-26T02:15:02;67421.94;;;2.06;100.00
36354;BME280;22383;51.114;13.666;2023-04-26T02:17:29;67421.59;;;2.08;100.00
36354;BME280;22383;51.114;13.666;2023-04-26T02:19:57;67426.81;;;2.08;100.00
36354;BME280;22383;51.114;13.666;2023-04-26T02:22:24;67421.41;;;2.06;100.00
36354;BME280;22383;51.114;13.666;2023-04-26T02:24:52;67418.94;;;2.01;100.00
36354;BME280;22383;51.114;13.666;2023-04-26T02:27:19;67420.84;;;2.05;100.00
36354;BME280;22383;51.114;13.666;2023-04-26T02:29:46;67414.28;;;2.02;100.00
36354;BME280;22383;51.114;13.666;2023-04-26T02:32:17;67423.09;;;2.07;100.00
36354;BME280;22383;51.114;13.666;2023-04-26T02:34:44;67432.25;;;2.11;100.00
36354;BME280;22383;51.114;13.666;2023-04-26T02:37:11;67379.28;;;2.08;100.00
36354;BME280;22383;51.114;13.666;2023-04-26T02:39:38;67378.16;;;2.07;100.00
36354;BME280;22383;51.114;13.666;2023-04-26T02:42:08;67416.69;;;1.99;100.00
36354;BME280;22383;51.114;13.666;2023-04-26T02:44:36;67418.94;;;2.01;100.00
36354;BME280;22383;51.114;13.666;2023-04-26T02:47:05;67416.69;;;1.99;100.00
36354;BME280;22383;51.114;13.666;2023-04-26T02:49:33;67364.66;;;1.95;100.00
36354;BME280;22383;51.114;13.666;2023-04-26T02:52:00;67408.44;;;1.94;100.00
36354;BME280;22383;51.114;13.666;2023-04-26T02:54:29;67406.34;;;1.87;100.00
36354;BME280;22383;51.114;13.666;2023-04-26T02:56:56;67396.06;;;1.83;100.00
36354;BME280;22383;51.114;13.666;2023-04-26T02:59:25;67397.91;;;1.80;100.00
36354;BME280;22383;51.114;13.666;2023-04-26T03:01:54;67394.16;;;1.79;100.00
36354;BME280;22383;51.114;13.666;2023-04-26T03:04:22;67395.28;;;1.80;100.00
36354;BME280;22383;51.114;13.666;2023-04-26T03:06:49;67396.78;;;1.79;100.00
36354;BME280;22383;51.114;13.666;2023-04-26T03:09:17;67400.38;;;1.84;100.00
36354;BME280;22383;51.114;13.666;2023-04-26T03:11:44;67400.38;;;1.84;100.00
36354;BME280;22383;51.114;13.666;2023-04-26T03:14:14;67392.50;;;1.77;100.00
36354;BME280;22383;51.114;13.666;2023-04-26T03:16:41;67386.09;;;1.69;100.00
36354;BME280;22383;51.114;13.666;2023-04-26T03:19:09;67372.22;;;1.59;100.00
36354;BME280;22383;51.114;13.666;2023-04-26T03:21:38;67362.66;;;1.50;100.00
36354;BME280;22383;51.114;13.666;2023-04-26T03:24:05;67373.91;;;1.60;100.00
36354;BME280;22383;51.114;13.666;2023-04-26T03:26:33;67367.16;;;1.54;100.00
36354;BME280;22383;51.114;13.666;2023-04-26T03:29:01;67357.38;;;1.43;100.00
36354;BME280;22383;51.114;13.666;2023-04-26T03:31:28;67349.16;;;1.38;100.00
36354;BME280;22383;51.114;13.666;2023-04-26T03:33:56;67344.84;;;1.36;100.00
36354;BME280;22383;51.114;13.666;2023-04-26T03:36:23;67349.50;;;1.36;100.00
36354;BME280;22383;51.114;13.666;2023-04-26T03:38:50;67346.91;;;1.36;100.00
36354;BME280;22383;51.114;13.666;2023-04-26T03:41:19;67345.41;;;1.37;100.00
36354;BME280;22383;51.114;13.666;2023-04-26T03:43:47;67351.19;;;1.37;100.00
36354;BME280;22383;51.114;13.666;2023-04-26T03:46:14;67346.69;;;1.33;100.00
36354;BME280;22383;51.114;13.666;2023-04-26T03:48:42;67301.09;;;1.37;100.00
36354;BME280;22383;51.114;13.666;2023-04-26T03:51:09;67294.38;;;1.30;100.00
36354;BME280;22383;51.114;13.666;2023-04-26T03:53:37;67287.06;;;1.24;100.00
36354;BME280;22383;51.114;13.666;2023-04-26T03:56:05;67331.72;;;1.22;100.00
36354;BME280;22383;51.114;13.666;2023-04-26T03:58:32;67324.03;;;1.17;100.00
36354;BME280;22383;51.114;13.666;2023-04-26T04:00:59;67317.66;;;1.09;100.00
36354;BME280;22383;51.114;13.666;2023-04-26T04:03:26;67319.13;;;1.08;100.00
36354;BME280;22383;51.114;13.666;2023-04-26T04:05:56;67313.72;;;1.05;100.00
36354;BME280;22383;51.114;13.666;2023-04-26T04:08:23;67319.31;;;1.10;100.00
36354;BME280;22383;51.114;13.666;2023-04-26T04:10:50;67315.97;;;1.07;100.00
36354;BME280;22383;51.114;13.666;2023-04-26T04:13:18;67328.88;;;1.19;100.00
36354;BME280;22383;51.114;13.666;2023-04-26T04:15:46;67337.34;;;1.27;100.00
36354;BME280;22383;51.114;13.666;2023-04-26T04:18:13;67277.50;;;1.15;100.00
36354;BME280;22383;51.114;13.666;2023-04-26T04:20:40;67320.09;;;1.13;100.00
36354;BME280;22383;51.114;13.666;2023-04-26T04:23:08;67317.84;;;1.11;100.00
36354;BME280;22383;51.114;13.666;2023-04-26T04:25:37;67324.75;;;1.13;100.00
36354;BME280;22383;51.114;13.666;2023-04-26T04:28:08;67330.56;;;1.21;100.00
36354;BME280;22383;51.114;13.666;2023-04-26T04:30:35;67325.72;;;1.19;100.00
36354;BME280;22383;51.114;13.666;2023-04-26T04:33:02;67332.28;;;1.22;100.00
36354;BME280;22383;51.114;13.666;2023-04-26T04:35:32;67332.28;;;1.22;100.00
36354;BME280;22383;51.114;13.666;2023-04-26T04:38:02;67328.34;;;1.19;100.00
36354;BME280;22383;51.114;13.666;2023-04-26T04:40:30;67335.44;;;1.23;100.00
36354;BME280;22383;51.114;13.666;2023-04-26T04:42:58;67340.72;;;1.30;100.00
36354;BME280;22383;51.114;13.666;2023-04-26T04:45:28;67351.75;;;1.38;100.00
36354;BME280;22383;51.114;13.666;2023-04-26T04:47:57;67306.16;;;1.41;100.00
36354;BME280;22383;51.114;13.666;2023-04-26T04:50:25;67310.09;;;1.45;100.00
36354;BME280;22383;51.114;13.666;2023-04-26T04:52:54;67371.09;;;1.58;100.00
36354;BME280;22383;51.114;13.666;2023-04-26T04:55:23;67373.91;;;1.60;100.00
36354;BME280;22383;51.114;13.666;2023-04-26T04:57:52;67386.28;;;1.72;100.00
36354;BME280;22383;51.114;13.666;2023-04-26T05:00:20;67392.28;;;1.75;100.00
36354;BME280;22383;51.114;13.666;2023-04-26T05:02:52;67391.34;;;1.76;100.00
36354;BME280;22383;51.114;13.666;2023-04-26T05:05:19;67405.06;;;1.91;100.00
36354;BME280;22383;51.114;13.666;2023-04-26T05:07:47;67388.06;;;2.14;100.00
36354;BME280;22383;51.114;13.666;2023-04-26T05:10:14;67439.22;;;2.20;100.00
36354;BME280;22383;51.114;13.666;2023-04-26T05:12:42;67392.78;;;2.20;100.00
36354;BME280;22383;51.114;13.666;2023-04-26T05:15:09;67445.97;;;2.26;100.00
36354;BME280;22383;51.114;13.666;2023-04-26T05:17:36;67408.91;;;2.33;100.00
36354;BME280;22383;51.114;13.666;2023-04-26T05:20:16;67462.09;;;2.38;100.00
36354;BME280;22383;51.114;13.666;2023-04-26T05:22:43;67506.78;;;2.81;100.00
36354;BME280;22383;51.114;13.666;2023-04-26T05:25:11;67543.06;;;3.17;100.00
36354;BME280;22383;51.114;13.666;2023-04-26T05:27:41;67550.94;;;3.24;100.00
36354;BME280;22383;51.114;13.666;2023-04-26T05:30:22;67587.94;;;3.55;100.00
36354;BME280;22383;51.114;13.666;2023-04-26T05:33:19;67572.72;;;3.41;100.00
36354;BME280;22383;51.114;13.666;2023-04-26T05:36:12;67615.00;;;3.80;100.00
36354;BME280;22383;51.114;13.666;2023-04-26T05:38:40;67686.28;;;4.47;100.00
36354;BME280;22383;51.114;13.666;2023-04-26T05:41:08;67739.09;;;4.93;100.00
36354;BME280;22383;51.114;13.666;2023-04-26T05:43:36;67791.03;;;5.40;100.00
36354;BME280;22383;51.114;13.666;2023-04-26T05:46:05;67810.81;;;5.58;100.00
36354;BME280;22383;51.114;13.666;2023-04-26T05:48:32;67818.50;;;5.63;100.00
36354;BME280;22383;51.114;13.666;2023-04-26T05:50:59;67762.66;;;5.19;100.00
36354;BME280;22383;51.114;13.666;2023-04-26T05:53:27;67782.38;;;5.30;100.00
36354;BME280;22383;51.114;13.666;2023-04-26T05:55:54;67784.47;;;5.37;100.00
36354;BME280;22383;51.114;13.666;2023-04-26T05:58:21;67813.06;;;5.60;100.00
36354;BME280;22383;51.114;13.666;2023-04-26T06:00:49;67783.13;;;5.33;100.00
36354;BME280;22383;51.114;13.666;2023-04-26T06:03:17;67784.81;;;5.35;100.00
36354;BME280;22383;51.114;13.666;2023-04-26T06:05:45;67645.66;;;4.10;100.00
36354;BME280;22383;51.114;13.666;2023-04-26T06:08:15;67594.91;;;3.64;100.00
36354;BME280;22383;51.114;13.666;2023-04-26T06:10:49;67597.38;;;3.69;100.00
36354;BME280;22383;51.114;13.666;2023-04-26T06:13:16;67578.94;;;3.47;100.00
36354;BME280;22383;51.114;13.666;2023-04-26T06:15:44;67656.19;;;4.18;100.00
36354;BME280;22383;51.114;13.666;2023-04-26T06:18:11;67643.38;;;4.08;100.00
36354;BME280;22383;51.114;13.666;2023-04-26T06:20:38;67663.50;;;4.24;100.00
36354;BME280;22383;51.114;13.666;2023-04-26T06:23:06;67618.59;;;3.86;100.00
36354;BME280;22383;51.114;13.666;2023-04-26T06:25:36;67669.53;;;4.34;100.00
36354;BME280;22383;51.114;13.666;2023-04-26T06:28:10;67668.03;;;4.28;100.00
36354;BME280;22383;51.114;13.666;2023-04-26T06:30:38;67649.63;;;4.54;100.00
36354;BME280;22383;51.114;13.666;2023-04-26T06:33:06;67774.66;;;5.25;100.00
36354;BME280;22383;51.114;13.666;2023-04-26T06:35:40;67709.19;;;4.66;100.00
36354;BME280;22383;51.114;13.666;2023-04-26T06:38:09;67647.16;;;4.09;100.00
36354;BME280;22383;51.114;13.666;2023-04-26T06:40:38;67721.44;;;4.82;100.00
36354;BME280;22383;51.114;13.666;2023-04-26T06:43:05;67800.84;;;5.52;100.00
36354;BME280;22383;51.114;13.666;2023-04-26T06:45:45;67761.66;;;5.14;100.00
36354;BME280;22383;51.114;13.666;2023-04-26T06:48:12;67727.25;;;4.82;100.00
36354;BME280;22383;51.114;13.666;2023-04-26T06:50:40;67802.34;;;5.51;100.00
36354;BME280;22383;51.114;13.666;2023-04-26T06:53:09;67762.25;;;5.14;100.00
36354;BME280;22383;51.114;13.666;2023-04-26T06:55:36;67766.97;;;5.21;100.00
36354;BME280;22383;51.114;13.666;2023-04-26T06:58:03;67859.22;;;6.07;100.00
36354;BME280;22383;51.114;13.666;2023-04-26T07:00:30;67898.94;;;6.38;100.00
36354;BME280;22383;51.114;13.666;2023-04-26T07:03:01;67793.84;;;5.43;100.00
36354;BME280;22383;51.114;13.666;2023-04-26T07:05:32;67708.41;;;4.63;100.00
36354;BME280;22383;51.114;13.666;2023-04-26T07:08:02;67681.00;;;4.40;100.00
36354;BME280;22383;51.114;13.666;2023-04-26T07:10:29;67699.03;;;4.57;100.00
36354;BME280;22383;51.114;13.666;2023-04-26T07:13:00;67799.72;;;5.51;100.00
36354;BME280;22383;51.114;13.666;2023-04-26T07:15:27;67765.28;;;5.19;100.00
36354;BME280;22383;51.114;13.666;2023-04-26T07:17:54;67663.72;;;4.67;100.00
36354;BME280;22383;51.114;13.666;2023-04-26T07:20:21;67655.41;;;4.14;100.00
36354;BME280;22383;51.114;13.666;2023-04-26T07:22:53;67622.69;;;3.85;100.00
36354;BME280;22383;51.114;13.666;2023-04-26T07:25:20;67727.81;;;4.83;100.00
36354;BME280;22383;51.114;13.666;2023-04-26T07:27:50;67725.56;;;4.81;100.00
36354;BME280;22383;51.114;13.666;2023-04-26T07:30:24;67742.50;;;4.96;100.00
36354;BME280;22383;51.114;13.666;2023-04-26T07:33:05;67736.84;;;4.91;100.00
36354;BME280;22383;51.114;13.666;2023-04-26T07:35:35;67819.06;;;5.63;100.00
36354;BME280;22383;51.114;13.666;2023-04-26T07:38:02;67875.41;;;6.19;100.00
36354;BME280;22383;51.114;13.666;2023-04-26T07:40:30;67830.56;;;5.76;100.00
36354;BME280;22383;51.114;13.666;2023-04-26T07:42:58;67775.78;;;5.26;100.00
36354;BME280;22383;51.114;13.666;2023-04-26T07:45:25;67729.31;;;4.82;100.00
36354;BME280;22383;51.114;13.666;2023-04-26T07:47:52;67696.22;;;4.54;100.00
36354;BME280;22383;51.114;13.666;2023-04-26T07:50:23;67730.06;;;4.85;100.00
36354;BME280;22383;51.114;13.666;2023-04-26T07:52:50;67762.66;;;5.19;100.00
36354;BME280;22383;51.114;13.666;2023-04-26T07:55:17;67713.34;;;5.13;100.00
36354;BME280;22383;51.114;13.666;2023-04-26T07:57:44;67771.28;;;5.22;100.00
36354;BME280;22383;51.114;13.666;2023-04-26T08:00:12;67750.41;;;5.03;100.00
36354;BME280;22383;51.114;13.666;2023-04-26T08:02:45;67730.63;;;4.85;100.00
36354;BME280;22383;51.114;13.666;2023-04-26T08:05:13;67730.31;;;4.95;100.00
36354;BME280;22383;51.114;13.666;2023-04-26T08:07:44;67892.91;;;6.35;100.00
36354;BME280;22383;51.114;13.666;2023-04-26T08:10:11;67881.06;;;6.24;100.00
36354;BME280;22383;51.114;13.666;2023-04-26T08:12:38;67817.75;;;6.08;100.00
36354;BME280;22383;51.114;13.666;2023-04-26T08:15:06;67771.47;;;5.25;100.00
36354;BME280;22383;51.114;13.666;2023-04-26T08:17:37;67756.78;;;5.11;100.00
36354;BME280;22383;51.114;13.666;2023-04-26T08:20:05;67731.56;;;4.84;100.00
36354;BME280;22383;51.114;13.666;2023-04-26T08:22:32;67710.13;;;4.64;100.00
36354;BME280;22383;51.114;13.666;2023-04-26T08:25:00;67684.56;;;4.46;100.00
36354;BME280;22383;51.114;13.666;2023-04-26T08:27:27;67666.88;;;4.27;100.00
36354;BME280;22383;51.114;13.666;2023-04-26T08:29:54;67732.91;;;4.87;100.00
36354;BME280;22383;51.114;13.666;2023-04-26T08:32:21;67896.88;;;6.39;100.00
36354;BME280;22383;51.114;13.666;2023-04-26T08:34:49;68035.00;;;7.67;100.00
36354;BME280;22383;51.114;13.666;2023-04-26T08:37:16;67986.19;;;7.20;100.00
36354;BME280;22383;51.114;13.666;2023-04-26T08:39:44;67900.66;;;6.40;100.00
36354;BME280;22383;51.114;13.666;2023-04-26T08:42:15;67825.31;;;5.76;100.00
36354;BME280;22383;51.114;13.666;2023-04-26T08:44:45;67800.66;;;5.49;100.00
36354;BME280;22383;51.114;13.666;2023-04-26T08:47:16;67779.19;;;5.29;100.00
36354;BME280;22383;51.114;13.666;2023-04-26T08:49:46;67742.69;;;4.99;100.00
36354;BME280;22383;51.114;13.666;2023-04-26T08:52:20;67839.59;;;5.84;100.00
36354;BME280;22383;51.114;13.666;2023-04-26T08:54:50;68003.16;;;7.35;100.00
36354;BME280;22383;51.114;13.666;2023-04-26T08:57:23;68051.00;;;7.76;100.00
36354;BME280;22383;51.114;13.666;2023-04-26T08:59:50;67946.22;;;6.79;100.00
36354;BME280;22383;51.114;13.666;2023-04-26T09:02:21;67886.13;;;6.29;100.00
36354;BME280;22383;51.114;13.666;2023-04-26T09:04:52;67860.69;;;5.99;100.00
36354;BME280;22383;51.114;13.666;2023-04-26T09:07:22;67845.81;;;5.90;100.00
36354;BME280;22383;51.114;13.666;2023-04-26T09:09:56;67815.88;;;5.63;100.00
36354;BME280;22383;51.114;13.666;2023-04-26T09:12:24;67749.81;;;5.43;100.00
36354;BME280;22383;51.114;13.666;2023-04-26T09:14:51;67787.66;;;5.37;100.00
36354;BME280;22383;51.114;13.666;2023-04-26T09:17:27;67862.22;;;6.05;100.00
36354;BME280;22383;51.114;13.666;2023-04-26T09:20:24;67946.81;;;6.87;100.00
36354;BME280;22383;51.114;13.666;2023-04-26T09:23:06;67967.88;;;7.01;100.00
36354;BME280;22383;51.114;13.666;2023-04-26T09:25:37;68038.97;;;7.70;100.00
36354;BME280;22383;51.114;13.666;2023-04-26T09:28:18;68056.13;;;7.81;100.00
36354;BME280;22383;51.114;13.666;2023-04-26T09:30:46;67908.19;;;6.49;100.00
36354;BME280;22383;51.114;13.666;2023-04-26T09:33:13;67868.44;;;6.11;100.00
36354;BME280;22383;51.114;13.666;2023-04-26T09:35:42;67824.34;;;5.71;100.00
36354;BME280;22383;51.114;13.666;2023-04-26T09:38:12;67839.78;;;5.87;100.00
36354;BME280;22383;51.114;13.666;2023-04-26T09:40:48;67975.63;;;7.13;100.00
36354;BME280;22383;51.114;13.666;2023-04-26T09:43:20;67973.19;;;7.08;100.00
36354;BME280;22383;51.114;13.666;2023-04-26T09:45:59;67909.28;;;6.50;98.33
36354;BME280;22383;51.114;13.666;2023-04-26T09:48:35;67874.63;;;6.16;100.00
36354;BME280;22383;51.114;13.666;2023-04-26T09:53:35;67846.94;;;5.91;100.00
36354;BME280;22383;51.114;13.666;2023-04-26T09:56:27;67880.81;;;6.62;100.00
36354;BME280;22383;51.114;13.666;2023-04-26T09:58:57;67969.97;;;7.00;100.00
36354;BME280;22383;51.114;13.666;2023-04-26T10:01:28;67931.72;;;6.68;100.00
36354;BME280;22383;51.114;13.666;2023-04-26T10:03:56;67879.53;;;6.18;100.00
36354;BME280;22383;51.114;13.666;2023-04-26T10:06:27;67828.16;;;5.79;100.00
36354;BME280;22383;51.114;13.666;2023-04-26T10:08:57;67792.75;;;5.42;100.00
36354;BME280;22383;51.114;13.666;2023-04-26T10:11:25;67782.00;;;5.32;100.00
36354;BME280;22383;51.114;13.666;2023-04-26T10:13:52;67792.16;;;5.41;100.00
36354;BME280;22383;51.114;13.666;2023-04-26T10:16:20;67824.34;;;5.71;100.00
36354;BME280;22383;51.114;13.666;2023-04-26T10:18:48;67953.19;;;6.88;100.00
36354;BME280;22383;51.114;13.666;2023-04-26T10:21:32;68078.19;;;8.01;100.00
36354;BME280;22383;51.114;13.666;2023-04-26T10:24:02;68138.00;;;8.60;100.00
36354;BME280;22383;51.114;13.666;2023-04-26T10:26:51;68050.66;;;7.79;94.50
36354;BME280;22383;51.114;13.666;2023-04-26T10:29:20;68013.31;;;7.45;100.00
36354;BME280;22383;51.114;13.666;2023-04-26T10:34:29;67934.16;;;6.73;95.26
36354;BME280;22383;51.114;13.666;2023-04-26T10:37:16;67904.94;;;6.41;97.80
36354;BME280;22383;51.114;13.666;2023-04-26T10:39:45;67923.22;;;6.60;100.00
36354;BME280;22383;51.114;13.666;2023-04-26T10:42:24;67905.34;;;6.47;100.00
36354;BME280;22383;51.114;13.666;2023-04-26T10:44:57;67944.91;;;6.82;100.00
36354;BME280;22383;51.114;13.666;2023-04-26T10:47:33;67979.78;;;7.12;100.00
36354;BME280;22383;51.114;13.666;2023-04-26T10:50:08;67980.16;;;7.17;100.00
36354;BME280;22383;51.114;13.666;2023-04-26T10:55:39;67948.66;;;6.84;100.00
36354;BME280;22383;51.114;13.666;2023-04-26T10:58:29;67954.69;;;6.87;100.00
36354;BME280;22383;51.114;13.666;2023-04-26T11:01:16;67953.38;;;6.90;100.00
36354;BME280;22383;51.114;13.666;2023-04-26T11:06:25;68007.25;;;7.34;100.00
36354;BME280;22383;51.114;13.666;2023-04-26T11:08:53;68036.69;;;7.61;100.00
36354;BME280;22383;51.114;13.666;2023-04-26T11:11:25;67974.13;;;7.07;96.76
36354;BME280;22383;51.114;13.666;2023-04-26T11:13:55;67920.41;;;6.58;98.42
36354;BME280;22383;51.114;13.666;2023-04-26T11:16:27;67920.41;;;6.58;100.00
36354;BME280;22383;51.114;13.666;2023-04-26T11:18:55;67937.56;;;6.76;100.00
36354;BME280;22383;51.114;13.666;2023-04-26T11:21:25;67972.59;;;7.08;100.00
36354;BME280;22383;51.114;13.666;2023-04-26T11:23:53;67992.19;;;7.23;100.00
36354;BME280;22383;51.114;13.666;2023-04-26T11:26:21;68028.41;;;7.56;100.00
36354;BME280;22383;51.114;13.666;2023-04-26T11:28:49;68014.84;;;7.44;99.19
36354;BME280;22383;51.114;13.666;2023-04-26T11:31:17;67997.13;;;7.32;100.00
36354;BME280;22383;51.114;13.666;2023-04-26T11:33:45;67953.75;;;6.88;97.25
36354;BME280;22383;51.114;13.666;2023-04-26T11:36:16;67915.31;;;6.53;97.53
36354;BME280;22383;51.114;13.666;2023-04-26T11:38:47;67902.53;;;6.44;100.00
36354;BME280;22383;51.114;13.666;2023-04-26T11:41:16;67934.53;;;6.71;100.00
36354;BME280;22383;51.114;13.666;2023-04-26T11:43:43;67935.69;;;6.72;100.00
36354;BME280;22383;51.114;13.666;2023-04-26T11:46:10;67946.78;;;6.79;100.00
36354;BME280;22383;51.114;13.666;2023-04-26T11:48:37;67946.22;;;6.79;100.00
36354;BME280;22383;51.114;13.666;2023-04-26T11:51:06;67941.69;;;6.75;99.39
36354;BME280;22383;51.114;13.666;2023-04-26T11:53:41;67932.47;;;6.71;100.00
36354;BME280;22383;51.114;13.666;2023-04-26T11:56:13;67966.75;;;7.00;100.00
36354;BME280;22383;51.114;13.666;2023-04-26T11:58:49;68053.47;;;7.81;100.00
36354;BME280;22383;51.114;13.666;2023-04-26T12:03:55;68031.81;;;7.59;91.55
36354;BME280;22383;51.114;13.666;2023-04-26T12:06:46;68009.16;;;7.38;87.61
36354;BME280;22383;51.114;13.666;2023-04-26T12:09:14;67992.97;;;7.26;86.35
36354;BME280;22383;51.114;13.666;2023-04-26T12:11:59;68018.22;;;7.47;87.91
36354;BME280;22383;51.114;13.666;2023-04-26T12:14:30;68025.56;;;7.53;86.99
36354;BME280;22383;51.114;13.666;2023-04-26T12:16:59;68044.78;;;7.71;86.00
36354;BME280;22383;51.114;13.666;2023-04-26T12:19:34;68014.84;;;7.44;88.31
36354;BME280;22383;51.114;13.666;2023-04-26T12:22:08;67992.03;;;7.28;91.50
36354;BME280;22383;51.114;13.666;2023-04-26T12:24:38;68026.88;;;7.57;95.79
36354;BME280;22383;51.114;13.666;2023-04-26T12:27:05;68045.75;;;7.76;94.52
36354;BME280;22383;51.114;13.666;2023-04-26T12:29:36;68094.22;;;8.18;94.61
36354;BME280;22383;51.114;13.666;2023-04-26T12:32:06;68127.25;;;8.43;91.15
36354;BME280;22383;51.114;13.666;2023-04-26T12:34:34;68077.97;;;7.99;86.31
36354;BME280;22383;51.114;13.666;2023-04-26T12:37:09;68073.84;;;8.00;93.60
36354;BME280;22383;51.114;13.666;2023-04-26T12:39:41;68058.56;;;7.86;91.37
36354;BME280;22383;51.114;13.666;2023-04-26T12:42:13;68067.44;;;7.91;94.11
36354;BME280;22383;51.114;13.666;2023-04-26T12:44:41;68056.88;;;7.84;86.30
36354;BME280;22383;51.114;13.666;2023-04-26T12:47:08;68043.09;;;7.69;86.53
36354;BME280;22383;51.114;13.666;2023-04-26T12:49:35;68038.56;;;7.65;88.15
36354;BME280;22383;51.114;13.666;2023-04-26T12:52:02;68036.50;;;7.66;94.15
36354;BME280;22383;51.114;13.666;2023-04-26T12:54:33;68031.44;;;7.61;93.87
36354;BME280;22383;51.114;13.666;2023-04-26T12:57:00;68042.91;;;7.67;93.50
36354;BME280;22383;51.114;13.666;2023-04-26T12:59:27;68036.31;;;7.63;95.85
36354;BME280;22383;51.114;13.666;2023-04-26T13:01:55;68049.72;;;7.80;95.73
36354;BME280;22383;51.114;13.666;2023-04-26T13:04:25;68060.28;;;7.87;97.32
36354;BME280;22383;51.114;13.666;2023-04-26T13:07:06;68056.88;;;7.84;92.71
36354;BME280;22383;51.114;13.666;2023-04-26T13:09:34;68095.72;;;8.17;94.87
36354;BME280;22383;51.114;13.666;2023-04-26T13:12:01;68108.72;;;8.29;98.27
36354;BME280;22383;51.114;13.666;2023-04-26T13:14:29;68052.72;;;7.78;95.55
36354;BME280;22383;51.114;13.666;2023-04-26T13:16:56;68055.56;;;7.81;99.85